Time;durP1;ratioP1;P1;durP2;ratioP2;P2;SDS_P1;SDS_P2;PMS_P1;PMS_P2;Temp;Humidity;BMP_temperature;BMP_pressure;BME280_temperature;BME280_humidity;BME280_pressure;Samples;Min_cycle;Max_cycle;Signal;HPM_P1;HPM_P2
2022/01/24 00:02:05;;;;;;;;;;;21.80;49.80;;;;;;5136330;27;19927;-41
2022/01/24 00:04:32;;;;;;;;;;;21.80;49.20;;;;;;5136418;27;19976;-41
2022/01/24 00:06:59;;;;;;;;;;;21.80;49.20;;;;;;5135134;27;20092;-41
2022/01/24 00:09:26;;;;;;;;;;;21.80;49.20;;;;;;5119521;27;19966;-39
2022/01/24 00:17:13;;;;;;;;;;;21.80;49.10;;;;;;5136205;27;20390;-46
2022/01/24 00:27:57;;;;;;;;;;;21.80;49.00;;;;;;5136571;27;19927;-41
2022/01/24 00:30:24;;;;;;;;;;;21.80;49.00;;;;;;5136189;27;19928;-43
2022/01/24 00:32:51;;;;;;;;;;;21.80;48.90;;;;;;5135802;27;20021;-45
2022/01/24 00:35:18;;;;;;;;;;;21.80;48.90;;;;;;5135818;27;20451;-45
2022/01/24 00:37:45;;;;;;;;;;;21.80;48.90;;;;;;5135261;27;19923;-42
2022/01/24 00:40:12;;;;;;;;;;;21.80;48.90;;;;;;5134786;27;19963;-39
2022/01/24 00:45:34;;;;;;;;;;;21.80;48.80;;;;;;5135952;27;19929;-42
2022/01/24 00:48:28;;;;;;;;;;;21.80;48.80;;;;;;5135596;27;19923;-42
2022/01/24 00:56:24;;;;;;;;;;;21.70;48.70;;;;;;5134299;27;20333;-40
2022/01/24 00:58:51;;;;;;;;;;;21.70;48.60;;;;;;5135564;27;20331;-39
2022/01/24 01:01:19;;;;;;;;;;;21.70;48.60;;;;;;5134859;27;19927;-42
2022/01/24 01:03:46;;;;;;;;;;;21.70;48.60;;;;;;5135613;27;19923;-39
2022/01/24 01:06:14;;;;;;;;;;;21.70;48.60;;;;;;5135213;27;20379;-40
2022/01/24 01:19:44;;;;;;;;;;;21.70;48.50;;;;;;5134780;27;20006;-40
2022/01/24 01:22:11;;;;;;;;;;;21.70;48.50;;;;;;5135704;27;20328;-41
2022/01/24 01:24:44;;;;;;;;;;;21.70;48.40;;;;;;5134597;27;20351;-42
2022/01/24 01:27:16;;;;;;;;;;;21.70;48.40;;;;;;5114449;28;20415;-42
2022/01/24 01:29:59;;;;;;;;;;;21.70;48.40;;;;;;5114667;28;20011;-43
2022/01/24 01:32:47;;;;;;;;;;;21.70;48.40;;;;;;5114652;28;19924;-43
2022/01/24 01:35:36;;;;;;;;;;;21.70;48.40;;;;;;5114834;28;19976;-39
2022/01/24 01:57:13;;;;;;;;;;;21.60;48.20;;;;;;5133733;28;20015;-39
2022/01/24 01:59:40;;;;;;;;;;;21.60;48.20;;;;;;5134810;28;19923;-41
2022/01/24 02:02:07;;;;;;;;;;;21.60;48.10;;;;;;5116147;28;19923;-41
2022/01/24 02:04:36;;;;;;;;;;;21.60;48.10;;;;;;5134838;28;19923;-41
2022/01/24 02:07:03;;;;;;;;;;;21.60;48.10;;;;;;5134525;28;20378;-40
2022/01/24 02:09:31;;;;;;;;;;;21.60;48.10;;;;;;5133859;28;20291;-43
2022/01/24 02:11:58;;;;;;;;;;;21.60;48.10;;;;;;5133675;28;19966;-42
2022/01/24 02:14:32;;;;;;;;;;;21.60;48.10;;;;;;5116357;28;19924;-45
2022/01/24 02:17:05;;;;;;;;;;;21.60;48.10;;;;;;5134763;28;19924;-41
2022/01/24 02:25:06;;;;;;;;;;;21.60;48.10;;;;;;5137418;27;20367;-44
2022/01/24 02:27:44;;;;;;;;;;;21.60;48.10;;;;;;5137562;27;20267;-43
2022/01/24 02:32:39;;;;;;;;;;;21.60;48.00;;;;;;5138557;27;19923;-41
2022/01/24 02:35:07;;;;;;;;;;;21.60;48.00;;;;;;5138175;27;20379;-41
2022/01/24 02:37:34;;;;;;;;;;;21.60;48.00;;;;;;5138099;27;20001;-41
2022/01/24 02:40:12;;;;;;;;;;;21.60;48.00;;;;;;5137718;27;20482;-42
2022/01/24 02:48:30;;;;;;;;;;;21.60;47.90;;;;;;5138312;27;19924;-42
2022/01/24 02:53:43;;;;;;;;;;;21.60;47.90;;;;;;5137074;27;19923;-41
2022/01/24 02:56:10;;;;;;;;;;;21.50;47.80;;;;;;5136357;27;19927;-39
2022/01/24 02:58:37;;;;;;;;;;;21.50;47.80;;;;;;5137743;27;19923;-41
2022/01/24 03:01:07;;;;;;;;;;;21.50;47.80;;;;;;5137445;27;19930;-42
2022/01/24 03:03:36;;;;;;;;;;;21.60;47.90;;;;;;5137941;27;19931;-42
2022/01/24 03:06:04;;;;;;;;;;;21.50;47.80;;;;;;5137890;27;19977;-39
2022/01/24 03:08:31;;;;;;;;;;;21.50;47.80;;;;;;5137556;27;19981;-40
2022/01/24 03:10:59;;;;;;;;;;;21.50;47.80;;;;;;5135301;27;20022;-41
2022/01/24 03:15:54;;;;;;;;;;;21.50;47.80;;;;;;5137999;27;19931;-43
2022/01/24 03:18:22;;;;;;;;;;;21.50;47.70;;;;;;5137302;27;19966;-39
2022/01/24 03:20:49;;;;;;;;;;;21.50;47.70;;;;;;5137128;27;19924;-45
2022/01/24 03:23:18;;;;;;;;;;;21.50;47.70;;;;;;5137588;27;19924;-40
2022/01/24 03:25:45;;;;;;;;;;;21.50;47.70;;;;;;5136431;27;20375;-41
2022/01/24 03:28:13;;;;;;;;;;;21.50;47.70;;;;;;5136084;27;19970;-40
2022/01/24 03:30:40;;;;;;;;;;;21.50;47.70;;;;;;5137979;27;19942;-40
2022/01/24 03:33:07;;;;;;;;;;;21.50;47.70;;;;;;5137393;27;19923;-41
2022/01/24 03:35:35;;;;;;;;;;;21.50;47.70;;;;;;5136042;27;20280;-45
2022/01/24 03:38:02;;;;;;;;;;;21.50;47.70;;;;;;5137276;27;19927;-41
2022/01/24 03:40:29;;;;;;;;;;;21.50;47.70;;;;;;5136208;27;19924;-41
2022/01/24 03:42:56;;;;;;;;;;;21.50;47.70;;;;;;5117658;27;20398;-42
2022/01/24 03:45:47;;;;;;;;;;;21.50;47.70;;;;;;5137063;27;19972;-40
2022/01/24 03:48:26;;;;;;;;;;;21.50;47.70;;;;;;5136781;27;19930;-40
2022/01/24 03:50:54;;;;;;;;;;;21.50;47.70;;;;;;5137033;27;19930;-40
2022/01/24 03:53:21;;;;;;;;;;;21.50;47.70;;;;;;5136800;27;20272;-40
2022/01/24 03:55:48;;;;;;;;;;;21.50;47.70;;;;;;5135894;27;19924;-43
2022/01/24 03:58:16;;;;;;;;;;;21.50;47.70;;;;;;5135496;27;19929;-41
2022/01/24 04:00:43;;;;;;;;;;;21.50;47.70;;;;;;5135926;27;19927;-41
2022/01/24 04:03:10;;;;;;;;;;;21.50;47.70;;;;;;5136789;27;19924;-41
2022/01/24 04:05:37;;;;;;;;;;;21.50;47.70;;;;;;5136788;27;20293;-40
2022/01/24 04:08:04;;;;;;;;;;;21.50;47.60;;;;;;5136688;27;19924;-40
2022/01/24 04:10:40;;;;;;;;;;;21.50;47.60;;;;;;5135636;27;20264;-40
2022/01/24 04:13:31;;;;;;;;;;;21.50;47.60;;;;;;5135652;27;19949;-44
2022/01/24 04:18:48;;;;;;;;;;;21.50;47.60;;;;;;5136508;27;19931;-42
2022/01/24 04:21:22;;;;;;;;;;;21.50;47.60;;;;;;5135958;27;20332;-39
2022/01/24 04:24:04;;;;;;;;;;;21.50;47.60;;;;;;5135920;27;20371;-41
2022/01/24 04:26:31;;;;;;;;;;;21.40;47.50;;;;;;5135274;27;19923;-42
2022/01/24 04:28:59;;;;;;;;;;;21.40;47.50;;;;;;5135143;27;19924;-40
2022/01/24 04:31:26;;;;;;;;;;;21.40;47.50;;;;;;5136216;27;19923;-42
2022/01/24 04:33:53;;;;;;;;;;;21.40;47.50;;;;;;5136115;27;19923;-39
2022/01/24 04:36:21;;;;;;;;;;;21.40;47.50;;;;;;5135791;27;19953;-42
2022/01/24 04:38:48;;;;;;;;;;;21.40;47.50;;;;;;5135759;27;19924;-42
2022/01/24 04:41:20;;;;;;;;;;;21.40;47.50;;;;;;5135167;27;19923;-39
2022/01/24 04:51:40;;;;;;;;;;;21.40;48.10;;;;;;5135713;27;19923;-40
2022/01/24 04:56:38;;;;;;;;;;;21.40;47.50;;;;;;5134657;27;19953;-43
2022/01/24 04:59:07;;;;;;;;;;;21.40;47.50;;;;;;5134530;27;20301;-44
2022/01/24 05:01:34;;;;;;;;;;;21.40;47.40;;;;;;5134815;27;19924;-41
2022/01/24 05:04:01;;;;;;;;;;;21.40;47.40;;;;;;5135277;27;19923;-43
2022/01/24 05:06:28;;;;;;;;;;;21.40;47.40;;;;;;5135230;27;19977;-42
2022/01/24 05:08:55;;;;;;;;;;;21.40;47.40;;;;;;5135232;27;19963;-46
2022/01/24 05:11:34;;;;;;;;;;;21.40;47.40;;;;;;5134106;27;20378;-39
2022/01/24 05:24:45;;;;;;;;;;;21.40;47.40;;;;;;5116882;27;19959;-47
2022/01/24 05:27:12;;;;;;;;;;;21.40;47.40;;;;;;5134251;27;20017;-40
2022/01/24 05:29:39;;;;;;;;;;;21.40;47.40;;;;;;5134171;27;20005;-40
2022/01/24 05:32:08;;;;;;;;;;;21.40;47.40;;;;;;5135182;27;19923;-40
2022/01/24 05:34:36;;;;;;;;;;;21.40;47.40;;;;;;5134836;27;20570;-40
2022/01/24 05:37:03;;;;;;;;;;;21.40;47.40;;;;;;5135102;27;20335;-43
2022/01/24 05:39:30;;;;;;;;;;;21.40;47.40;;;;;;5135076;27;19946;-38
2022/01/24 05:41:57;;;;;;;;;;;21.40;47.40;;;;;;5134137;27;19923;-40
2022/01/24 05:44:24;;;;;;;;;;;21.40;47.40;;;;;;5133563;27;19924;-40
2022/01/24 05:46:51;;;;;;;;;;;21.40;47.40;;;;;;5134953;28;19973;-41
2022/01/24 05:49:18;;;;;;;;;;;21.40;47.30;;;;;;5135008;28;20074;-41
2022/01/24 05:51:45;;;;;;;;;;;21.40;47.30;;;;;;5134465;28;19972;-41
2022/01/24 05:54:12;;;;;;;;;;;21.40;47.30;;;;;;5134609;28;20014;-40
2022/01/24 05:56:39;;;;;;;;;;;21.40;47.30;;;;;;5133844;28;19977;-39
2022/01/24 05:59:06;;;;;;;;;;;21.40;47.30;;;;;;5136547;27;20022;-42
2022/01/24 06:01:33;;;;;;;;;;;21.40;47.30;;;;;;5138588;27;20363;-41
2022/01/24 06:04:00;;;;;;;;;;;21.40;47.30;;;;;;5138788;27;19924;-39
2022/01/24 06:06:27;;;;;;;;;;;21.40;47.30;;;;;;5138981;27;19930;-41
2022/01/24 06:08:54;;;;;;;;;;;21.30;47.30;;;;;;5138992;27;19962;-42
2022/01/24 06:11:24;;;;;;;;;;;21.40;47.30;;;;;;5137388;27;19927;-42
2022/01/24 06:13:52;;;;;;;;;;;21.40;47.30;;;;;;5137810;27;19923;-41
2022/01/24 06:16:19;;;;;;;;;;;21.40;47.30;;;;;;5138526;27;19963;-42
2022/01/24 06:18:46;;;;;;;;;;;21.30;47.20;;;;;;5138438;27;20382;-43
2022/01/24 06:21:14;;;;;;;;;;;21.30;47.30;;;;;;5138492;27;19924;-41
2022/01/24 06:23:41;;;;;;;;;;;21.30;47.20;;;;;;5138504;27;19969;-40
2022/01/24 06:26:09;;;;;;;;;;;21.30;47.30;;;;;;5139033;27;20318;-41
2022/01/24 06:28:36;;;;;;;;;;;21.30;47.30;;;;;;5136991;27;19923;-41
2022/01/24 06:31:03;;;;;;;;;;;21.30;47.30;;;;;;5138553;27;19923;-40
2022/01/24 06:33:30;;;;;;;;;;;21.30;47.30;;;;;;5139394;27;19976;-40
2022/01/24 06:35:58;;;;;;;;;;;21.30;47.20;;;;;;5138417;27;19928;-42
2022/01/24 06:38:25;;;;;;;;;;;21.30;47.20;;;;;;5138112;27;20378;-45
2022/01/24 06:40:52;;;;;;;;;;;21.30;47.20;;;;;;5137854;27;20026;-40
2022/01/24 06:43:19;;;;;;;;;;;21.30;47.20;;;;;;5136541;27;20013;-42
2022/01/24 06:45:46;;;;;;;;;;;21.30;47.20;;;;;;5138009;27;20017;-42
2022/01/24 06:48:13;;;;;;;;;;;21.30;47.20;;;;;;5138254;27;19933;-42
2022/01/24 06:50:40;;;;;;;;;;;21.30;47.20;;;;;;5137829;27;19924;-40
2022/01/24 06:53:07;;;;;;;;;;;21.30;47.20;;;;;;5137918;27;19928;-43
2022/01/24 06:55:34;;;;;;;;;;;21.30;47.20;;;;;;5137747;27;20378;-41
2022/01/24 06:58:01;;;;;;;;;;;21.30;47.20;;;;;;5136634;27;19924;-40
2022/01/24 07:00:30;;;;;;;;;;;21.30;47.20;;;;;;5136276;27;19923;-44
2022/01/24 07:02:58;;;;;;;;;;;21.30;47.20;;;;;;5137901;27;20263;-41
2022/01/24 07:05:25;;;;;;;;;;;21.30;47.20;;;;;;5137916;27;19923;-42
2022/01/24 07:07:53;;;;;;;;;;;21.30;47.20;;;;;;5137471;27;19981;-39
2022/01/24 07:10:19;;;;;;;;;;;21.30;47.10;;;;;;5136361;27;20294;-41
2022/01/24 07:12:56;;;;;;;;;;;21.30;47.10;;;;;;5136477;27;19923;-40
2022/01/24 07:15:31;;;;;;;;;;;21.30;47.10;;;;;;5136419;27;19927;-42
2022/01/24 07:18:56;;;;;;;;;;;21.30;47.10;;;;;;5138108;27;19924;-42
2022/01/24 07:20:48;;;;;;;;;;;21.30;47.10;;;;;;5136866;27;20435;-42
2022/01/24 07:23:15;;;;;;;;;;;21.30;47.10;;;;;;5137061;27;19963;-41
2022/01/24 07:25:43;;;;;;;;;;;21.30;47.10;;;;;;5137088;27;19970;-43
2022/01/24 07:28:10;;;;;;;;;;;21.30;47.10;;;;;;5136576;27;20290;-40
2022/01/24 07:30:37;;;;;;;;;;;21.30;47.10;;;;;;5136146;27;19976;-41
2022/01/24 07:33:04;;;;;;;;;;;21.30;47.10;;;;;;5137292;27;19923;-41
2022/01/24 07:35:31;;;;;;;;;;;21.30;47.00;;;;;;5136843;27;19924;-42
2022/01/24 07:37:58;;;;;;;;;;;21.30;47.00;;;;;;5118522;27;19966;-40
2022/01/24 07:40:25;;;;;;;;;;;21.30;47.00;;;;;;5136975;27;20298;-47
2022/01/24 07:43:08;;;;;;;;;;;21.30;47.00;;;;;;5136100;27;19963;-43
2022/01/24 07:45:35;;;;;;;;;;;21.30;47.00;;;;;;5135667;27;19927;-41
2022/01/24 07:48:03;;;;;;;;;;;21.40;47.10;;;;;;5136780;27;19930;-45
2022/01/24 07:50:31;;;;;;;;;;;21.40;47.10;;;;;;5136945;27;19972;-42
2022/01/24 07:53:01;;;;;;;;;;;21.40;47.10;;;;;;5136735;27;19924;-45
2022/01/24 07:55:28;;;;;;;;;;;21.30;47.00;;;;;;5136620;27;19924;-42
2022/01/24 07:57:56;;;;;;;;;;;21.40;47.10;;;;;;5135730;27;20328;-43
2022/01/24 08:00:23;;;;;;;;;;;21.40;47.10;;;;;;5135001;27;20344;-46
2022/01/24 08:02:57;;;;;;;;;;;21.40;47.10;;;;;;5136727;27;20014;-43
2022/01/24 08:05:25;;;;;;;;;;;21.40;47.10;;;;;;5136399;27;20379;-41
2022/01/24 08:07:52;;;;;;;;;;;21.40;47.00;;;;;;5136882;27;19923;-45
2022/01/24 08:10:19;;;;;;;;;;;21.40;47.00;;;;;;5136468;27;19969;-43
2022/01/24 08:12:46;;;;;;;;;;;21.40;47.00;;;;;;5135552;27;20275;-43
2022/01/24 08:15:14;;;;;;;;;;;21.40;46.90;;;;;;5135452;27;20030;-43
2022/01/24 08:17:42;;;;;;;;;;;21.40;47.00;;;;;;5136157;27;20375;-41
2022/01/24 08:20:10;;;;;;;;;;;21.40;46.90;;;;;;5136220;27;19945;-40
2022/01/24 08:22:57;;;;;;;;;;;21.40;46.90;;;;;;5135668;27;20019;-44
2022/01/24 08:25:24;;;;;;;;;;;21.40;46.90;;;;;;5135954;27;19976;-40
2022/01/24 08:27:51;;;;;;;;;;;21.40;46.80;;;;;;5135293;27;19937;-43
2022/01/24 08:30:19;;;;;;;;;;;21.40;46.80;;;;;;5108857;28;19924;-42
2022/01/24 08:32:46;;;;;;;;;;;21.40;46.70;;;;;;5115084;28;20378;-43
2022/01/24 08:35:14;;;;;;;;;;;21.40;46.70;;;;;;5115103;28;19934;-40
2022/01/24 08:37:41;;;;;;;;;;;21.40;46.70;;;;;;5115161;28;19924;-41
2022/01/24 08:40:10;;;;;;;;;;;21.50;46.70;;;;;;5115909;28;19924;-42
2022/01/24 08:42:42;;;;;;;;;;;21.50;46.70;;;;;;5115058;28;19923;-41
2022/01/24 08:47:59;;;;;;;;;;;21.50;46.60;;;;;;5135586;27;20471;-42
2022/01/24 08:50:27;;;;;;;;;;;21.50;46.60;;;;;;5135676;27;20006;-41
2022/01/24 08:52:59;;;;;;;;;;;21.50;46.60;;;;;;5135160;27;20413;-42
2022/01/24 08:55:27;;;;;;;;;;;21.50;46.50;;;;;;5136110;27;19945;-41
2022/01/24 08:57:55;;;;;;;;;;;21.50;46.50;;;;;;5134651;27;19928;-43
2022/01/24 09:00:23;;;;;;;;;;;21.50;46.50;;;;;;5133644;27;19924;-42
2022/01/24 09:02:50;;;;;;;;;;;21.50;46.40;;;;;;5117051;27;19927;-40
2022/01/24 09:05:19;;;;;;;;;;;21.50;46.40;;;;;;5135458;27;19923;-41
2022/01/24 09:07:46;;;;;;;;;;;21.50;46.40;;;;;;5135083;27;20383;-42
2022/01/24 09:10:13;;;;;;;;;;;21.50;46.40;;;;;;5135164;27;20274;-40
2022/01/24 09:12:41;;;;;;;;;;;21.50;46.30;;;;;;5135172;27;19924;-43
2022/01/24 09:15:08;;;;;;;;;;;21.50;46.30;;;;;;5100978;27;19988;-43
2022/01/24 09:17:37;;;;;;;;;;;21.60;46.40;;;;;;5134961;27;19966;-42
2022/01/24 09:20:05;;;;;;;;;;;21.60;46.30;;;;;;5134685;27;19923;-45
2022/01/24 09:22:46;;;;;;;;;;;21.60;46.30;;;;;;5134886;27;19946;-42
2022/01/24 09:25:15;;;;;;;;;;;21.60;46.30;;;;;;5134934;27;19927;-44
2022/01/24 09:27:43;;;;;;;;;;;21.60;46.30;;;;;;5135000;27;19923;-44
2022/01/24 09:30:11;;;;;;;;;;;21.60;46.30;;;;;;5132858;27;19927;-42
2022/01/24 09:32:38;;;;;;;;;;;21.60;46.30;;;;;;5134196;27;19966;-42
2022/01/24 09:35:06;;;;;;;;;;;21.60;46.30;;;;;;5134946;27;19964;-41
2022/01/24 09:37:34;;;;;;;;;;;21.60;46.20;;;;;;5134542;27;20010;-39
2022/01/24 09:40:01;;;;;;;;;;;21.60;46.20;;;;;;5134517;27;19966;-42
2022/01/24 09:42:28;;;;;;;;;;;21.60;46.20;;;;;;5134727;27;20264;-45
2022/01/24 09:44:55;;;;;;;;;;;21.60;46.20;;;;;;5133725;27;19927;-43
2022/01/24 09:47:23;;;;;;;;;;;21.60;46.20;;;;;;5134035;28;19972;-43
2022/01/24 09:49:51;;;;;;;;;;;21.60;46.20;;;;;;5134884;28;20280;-48
2022/01/24 09:52:18;;;;;;;;;;;21.70;46.20;;;;;;5116162;28;19923;-43
2022/01/24 09:54:45;;;;;;;;;;;21.70;46.20;;;;;;5134897;28;20023;-46
2022/01/24 09:57:12;;;;;;;;;;;21.70;46.10;;;;;;5134537;28;19952;-41
2022/01/24 09:59:39;;;;;;;;;;;21.70;46.10;;;;;;5133530;28;19967;-47
2022/01/24 10:02:06;;;;;;;;;;;21.70;46.00;;;;;;5133137;28;20028;-43
2022/01/24 10:04:33;;;;;;;;;;;21.70;46.00;;;;;;5116439;28;19962;-49
2022/01/24 10:07:03;;;;;;;;;;;21.70;46.00;;;;;;5134461;28;19923;-45
2022/01/24 10:09:34;;;;;;;;;;;21.70;45.90;;;;;;5134757;28;19969;-44
2022/01/24 10:12:12;;;;;;;;;;;21.70;45.90;;;;;;5134553;28;20342;-42
2022/01/24 10:17:31;;;;;;;;;;;21.70;45.80;;;;;;5133356;28;19923;-44
2022/01/24 10:20:14;;;;;;;;;;;21.70;45.80;;;;;;5134396;28;19988;-42
2022/01/24 10:22:41;;;;;;;;;;;21.80;45.80;;;;;;5116348;28;19923;-43
2022/01/24 10:25:09;;;;;;;;;;;21.80;45.70;;;;;;5134612;28;20336;-46
2022/01/24 10:27:36;;;;;;;;;;;21.80;45.70;;;;;;5134234;28;19969;-40
2022/01/24 10:30:08;;;;;;;;;;;21.80;45.60;;;;;;5124788;28;19965;-43
2022/01/24 10:32:40;;;;;;;;;;;21.80;45.60;;;;;;5113209;28;21317;-43
2022/01/24 10:35:26;;;;;;;;;;;21.80;45.50;;;;;;5113662;28;19924;-46
2022/01/24 10:38:17;;;;;;;;;;;21.80;45.50;;;;;;5113859;28;19980;-42
2022/01/24 10:43:15;;;;;;;;;;;21.80;45.40;;;;;;5113500;28;19928;-40
2022/01/24 10:45:44;;;;;;;;;;;21.80;45.40;;;;;;5130096;27;19923;-39
2022/01/24 10:48:11;;;;;;;;;;;21.90;45.40;;;;;;5117042;28;19924;-40
2022/01/24 10:50:38;;;;;;;;;;;21.90;45.40;;;;;;5117256;28;19924;-41
2022/01/24 10:53:13;;;;;;;;;;;21.90;45.40;;;;;;5117056;28;20375;-42
2022/01/24 10:55:47;;;;;;;;;;;21.90;45.30;;;;;;5117800;28;20015;-44
2022/01/24 10:58:18;;;;;;;;;;;21.90;45.20;;;;;;5117414;28;19989;-49
2022/01/24 11:00:46;;;;;;;;;;;21.90;45.80;;;;;;5129049;27;19923;-45
2022/01/24 11:03:18;;;;;;;;;;;21.90;45.10;;;;;;5098820;28;20022;-45
2022/01/24 11:05:46;;;;;;;;;;;21.90;45.10;;;;;;5117295;28;19946;-41
2022/01/24 11:08:14;;;;;;;;;;;22.00;45.10;;;;;;5117225;28;19927;-42
2022/01/24 11:10:51;;;;;;;;;;;22.00;45.10;;;;;;5116747;28;19924;-41
2022/01/24 11:13:30;;;;;;;;;;;21.90;45.00;;;;;;5117345;28;19993;-43
2022/01/24 11:15:58;;;;;;;;;;;22.00;45.00;;;;;;5129376;27;19946;-48
2022/01/24 11:18:31;;;;;;;;;;;22.00;44.90;;;;;;5136901;27;19974;-44
2022/01/24 11:21:12;;;;;;;;;;;22.00;44.80;;;;;;5137448;27;19930;-42
2022/01/24 11:23:40;;;;;;;;;;;22.00;44.80;;;;;;5137058;27;19923;-42
2022/01/24 11:26:09;;;;;;;;;;;22.00;44.70;;;;;;5137544;27;19976;-40
2022/01/24 11:28:36;;;;;;;;;;;22.10;44.80;;;;;;5137125;27;19923;-41
2022/01/24 11:31:16;;;;;;;;;;;22.10;44.70;;;;;;5136284;27;20421;-42
2022/01/24 11:33:47;;;;;;;;;;;22.10;44.70;;;;;;5116358;28;19923;-42
2022/01/24 11:36:15;;;;;;;;;;;22.10;44.70;;;;;;5116840;28;19928;-41
2022/01/24 11:38:43;;;;;;;;;;;22.10;44.90;;;;;;5116447;28;19969;-45
2022/01/24 11:41:25;;;;;;;;;;;22.10;44.60;;;;;;5116284;28;19923;-39
2022/01/24 11:43:55;;;;;;;;;;;22.10;44.60;;;;;;5116370;28;19924;-40
2022/01/24 11:46:45;;;;;;;;;;;22.10;44.60;;;;;;5115741;28;20272;-40
2022/01/24 11:49:16;;;;;;;;;;;22.10;44.50;;;;;;5116166;28;19923;-43
2022/01/24 11:51:49;;;;;;;;;;;22.10;44.50;;;;;;5116492;28;20345;-44
2022/01/24 11:57:34;;;;;;;;;;;22.10;44.50;;;;;;5115317;28;19946;-39
2022/01/24 12:00:04;;;;;;;;;;;22.10;44.60;;;;;;5116475;27;19924;-43
2022/01/24 12:02:45;;;;;;;;;;;22.10;44.50;;;;;;5136023;27;19924;-42
2022/01/24 12:05:14;;;;;;;;;;;22.10;44.50;;;;;;5118734;27;19962;-40
2022/01/24 12:07:43;;;;;;;;;;;22.10;44.60;;;;;;5136439;27;19931;-40
2022/01/24 12:13:09;;;;;;;;;;;22.10;44.50;;;;;;5136508;27;19964;-40
2022/01/24 12:15:38;;;;;;;;;;;22.20;44.60;;;;;;5135508;27;19931;-40
2022/01/24 12:18:06;;;;;;;;;;;22.20;44.70;;;;;;5135617;27;19935;-40
2022/01/24 12:20:36;;;;;;;;;;;22.10;44.60;;;;;;5136227;27;20287;-40
2022/01/24 12:23:27;;;;;;;;;;;22.20;44.60;;;;;;5135896;27;19976;-41
2022/01/24 12:26:13;;;;;;;;;;;22.20;44.60;;;;;;5130038;27;20392;-43
2022/01/24 12:28:44;;;;;;;;;;;22.20;44.70;;;;;;5135968;27;20002;-43
2022/01/24 12:31:17;;;;;;;;;;;22.20;44.70;;;;;;5135533;27;19927;-40
2022/01/24 12:33:50;;;;;;;;;;;22.20;44.60;;;;;;5134839;27;19977;-42
2022/01/24 12:36:37;;;;;;;;;;;22.20;44.60;;;;;;5136191;27;20022;-44
2022/01/24 12:39:14;;;;;;;;;;;22.20;44.60;;;;;;5135679;27;19923;-40
2022/01/24 12:41:46;;;;;;;;;;;22.20;44.60;;;;;;5135950;27;19962;-41
2022/01/24 12:47:19;;;;;;;;;;;22.20;44.60;;;;;;5103187;28;19959;-41
2022/01/24 12:49:47;;;;;;;;;;;22.20;44.60;;;;;;5135598;27;20313;-42
2022/01/24 12:52:25;;;;;;;;;;;22.30;44.70;;;;;;5135743;27;19923;-41
2022/01/24 12:55:00;;;;;;;;;;;22.30;44.70;;;;;;5135710;27;19972;-41
2022/01/24 12:57:32;;;;;;;;;;;22.30;44.60;;;;;;5135798;27;19924;-41
2022/01/24 13:00:20;;;;;;;;;;;22.30;44.60;;;;;;5135311;27;19923;-40
2022/01/24 13:02:47;;;;;;;;;;;22.30;44.60;;;;;;5133557;27;19968;-41
2022/01/24 13:05:17;;;;;;;;;;;22.30;44.60;;;;;;5135342;27;19972;-41
2022/01/24 13:07:52;;;;;;;;;;;22.30;44.60;;;;;;5135529;27;19931;-42
2022/01/24 13:10:21;;;;;;;;;;;22.30;44.60;;;;;;5135122;27;19928;-42
2022/01/24 13:12:55;;;;;;;;;;;22.30;44.60;;;;;;5135519;27;19998;-43
2022/01/24 13:20:22;;;;;;;;;;;22.30;44.60;;;;;;5135449;27;19923;-40
2022/01/24 13:21:11;;;;;;;;;;;22.30;44.60;;;;;;5135017;27;20336;-40
2022/01/24 13:23:45;;;;;;;;;;;22.30;44.60;;;;;;5134790;27;19923;-44
2022/01/24 13:26:13;;;;;;;;;;;22.30;44.60;;;;;;5135349;27;19923;-40
2022/01/24 13:28:40;;;;;;;;;;;22.30;44.60;;;;;;5134925;27;19923;-41
2022/01/24 13:31:08;;;;;;;;;;;22.30;44.60;;;;;;5134161;27;19927;-40
2022/01/24 13:33:38;;;;;;;;;;;22.30;44.60;;;;;;5134088;27;19923;-42
2022/01/24 13:36:08;;;;;;;;;;;22.30;44.70;;;;;;5135024;27;19996;-45
2022/01/24 13:38:43;;;;;;;;;;;22.30;44.70;;;;;;5135164;27;19962;-39
2022/01/24 13:41:12;;;;;;;;;;;22.20;44.60;;;;;;5135010;27;20328;-40
2022/01/24 13:43:45;;;;;;;;;;;22.30;44.70;;;;;;5134609;27;19923;-41
2022/01/24 13:46:13;;;;;;;;;;;22.30;44.70;;;;;;5133954;27;19930;-40
2022/01/24 13:48:40;;;;;;;;;;;22.20;44.60;;;;;;5133924;27;19924;-41
2022/01/24 13:51:07;;;;;;;;;;;22.30;44.70;;;;;;5135533;28;20427;-40
2022/01/24 13:53:37;;;;;;;;;;;22.30;44.70;;;;;;5134780;28;19931;-40
2022/01/24 13:56:18;;;;;;;;;;;22.20;44.60;;;;;;5134955;28;20021;-40
2022/01/24 13:58:58;;;;;;;;;;;22.30;44.70;;;;;;5134871;28;19930;-40
2022/01/24 14:01:25;;;;;;;;;;;22.30;44.70;;;;;;5133509;28;20268;-44
2022/01/24 14:03:57;;;;;;;;;;;22.30;44.70;;;;;;5133694;28;20324;-42
2022/01/24 14:06:29;;;;;;;;;;;22.30;44.70;;;;;;5134478;28;19930;-41
2022/01/24 14:09:05;;;;;;;;;;;22.30;44.70;;;;;;5134858;28;19923;-42
2022/01/24 14:11:32;;;;;;;;;;;22.30;44.70;;;;;;5134723;28;19923;-40
2022/01/24 14:14:09;;;;;;;;;;;22.20;44.60;;;;;;5134748;28;19924;-43
2022/01/24 14:19:08;;;;;;;;;;;22.30;44.70;;;;;;5122930;27;20450;-46
2022/01/24 14:21:39;;;;;;;;;;;22.30;44.80;;;;;;5138556;27;19970;-46
2022/01/24 14:24:09;;;;;;;;;;;22.30;44.80;;;;;;5138687;27;19923;-45
2022/01/24 14:26:46;;;;;;;;;;;22.30;44.80;;;;;;5138652;27;19984;-44
2022/01/24 14:29:16;;;;;;;;;;;22.30;44.80;;;;;;5138411;27;19924;-48
2022/01/24 14:31:46;;;;;;;;;;;22.20;44.70;;;;;;5120141;27;20370;-44
2022/01/24 14:34:17;;;;;;;;;;;22.20;44.70;;;;;;5137109;27;19991;-47
2022/01/24 14:36:56;;;;;;;;;;;22.20;44.70;;;;;;5138265;27;19927;-45
2022/01/24 14:39:24;;;;;;;;;;;22.20;44.70;;;;;;5138168;27;19923;-42
2022/01/24 14:41:52;;;;;;;;;;;22.20;44.70;;;;;;5138556;27;19923;-40
2022/01/24 14:47:06;;;;;;;;;;;22.20;44.70;;;;;;5137607;27;19924;-42
2022/01/24 14:49:37;;;;;;;;;;;22.30;44.80;;;;;;5137301;27;20294;-41
2022/01/24 14:52:06;;;;;;;;;;;22.30;44.80;;;;;;5138050;27;19927;-41
2022/01/24 14:54:34;;;;;;;;;;;22.30;44.80;;;;;;5138178;27;19923;-39
2022/01/24 14:57:03;;;;;;;;;;;22.30;44.70;;;;;;5138710;27;20036;-40
2022/01/24 14:59:31;;;;;;;;;;;22.30;44.90;;;;;;5137781;27;19927;-40
2022/01/24 15:01:58;;;;;;;;;;;22.30;44.70;;;;;;5119078;27;19973;-40
2022/01/24 15:04:26;;;;;;;;;;;22.30;44.70;;;;;;5123638;27;19923;-41
2022/01/24 15:06:53;;;;;;;;;;;22.30;44.70;;;;;;5137635;27;19969;-42
2022/01/24 15:09:24;;;;;;;;;;;22.30;44.70;;;;;;5137906;27;19923;-41
2022/01/24 15:11:51;;;;;;;;;;;22.30;44.70;;;;;;5137760;27;19972;-41
2022/01/24 15:14:27;;;;;;;;;;;22.30;44.70;;;;;;5138111;27;19927;-42
2022/01/24 15:27:38;;;;;;;;;;;22.30;44.80;;;;;;5137557;27;19927;-40
2022/01/24 15:30:06;;;;;;;;;;;22.20;44.70;;;;;;5136593;27;19963;-40
2022/01/24 15:32:48;;;;;;;;;;;22.30;44.80;;;;;;5120530;27;19974;-41
2022/01/24 15:35:16;;;;;;;;;;;22.30;44.80;;;;;;5136274;27;20336;-41
2022/01/24 15:37:44;;;;;;;;;;;22.30;44.80;;;;;;5137303;27;19945;-40
2022/01/24 15:40:12;;;;;;;;;;;22.20;44.80;;;;;;5136813;27;20011;-42
2022/01/24 15:42:58;;;;;;;;;;;22.20;44.80;;;;;;5136907;27;19953;-41
2022/01/24 15:45:40;;;;;;;;;;;22.20;44.80;;;;;;5137191;27;19976;-40
2022/01/24 15:48:08;;;;;;;;;;;22.20;44.80;;;;;;5136414;27;19930;-42
2022/01/24 15:50:36;;;;;;;;;;;22.20;44.80;;;;;;5136026;27;19930;-45
2022/01/24 15:53:04;;;;;;;;;;;22.20;44.80;;;;;;5136567;27;19966;-39
2022/01/24 15:55:33;;;;;;;;;;;22.20;44.80;;;;;;5136583;27;20417;-42
2022/01/24 15:58:00;;;;;;;;;;;22.20;44.90;;;;;;5136931;27;19991;-43
2022/01/24 16:00:29;;;;;;;;;;;22.20;44.90;;;;;;5136467;27;19992;-43
2022/01/24 16:02:58;;;;;;;;;;;22.20;44.90;;;;;;5135509;27;19924;-42
2022/01/24 16:05:26;;;;;;;;;;;22.20;44.90;;;;;;5135369;27;19923;-40
2022/01/24 16:07:55;;;;;;;;;;;22.20;44.90;;;;;;5136406;27;20014;-40
2022/01/24 16:10:23;;;;;;;;;;;22.20;44.90;;;;;;5136518;27;19930;-43
2022/01/24 16:12:50;;;;;;;;;;;22.20;45.00;;;;;;5136237;27;19923;-42
2022/01/24 16:15:22;;;;;;;;;;;22.20;45.00;;;;;;5136637;27;19929;-41
2022/01/24 16:17:49;;;;;;;;;;;22.20;45.00;;;;;;5136606;27;20343;-42
2022/01/24 16:20:40;;;;;;;;;;;22.20;45.00;;;;;;5134186;27;19969;-40
2022/01/24 16:26:10;;;;;;;;;;;22.20;45.00;;;;;;5073363;28;19928;-42
2022/01/24 16:28:37;;;;;;;;;;;22.20;45.10;;;;;;5073050;28;19954;-43
2022/01/24 16:31:05;;;;;;;;;;;22.20;45.10;;;;;;5072795;28;19971;-42
2022/01/24 16:33:34;;;;;;;;;;;22.10;45.00;;;;;;5055594;28;19936;-41
2022/01/24 16:36:04;;;;;;;;;;;22.10;45.00;;;;;;5071854;28;19978;-41
2022/01/24 16:38:31;;;;;;;;;;;22.10;45.00;;;;;;5072654;28;19932;-42
2022/01/24 16:41:08;;;;;;;;;;;22.10;45.00;;;;;;5072468;28;20027;-41
2022/01/24 16:48:37;;;;;;;;;;;22.10;45.00;;;;;;5071668;28;20408;-41
2022/01/24 16:51:06;;;;;;;;;;;22.10;45.00;;;;;;5071570;28;20011;-42
2022/01/24 16:53:33;;;;;;;;;;;22.10;45.00;;;;;;5072312;28;19925;-41